createdAt,value
2018-09-03T00:01:28.696Z,23.56
2018-09-03T00:03:56.330Z,23.55
2018-09-03T00:06:24.060Z,23.53
2018-09-03T00:08:51.709Z,23.52
2018-09-03T00:11:19.722Z,23.53
2018-09-03T00:13:48.016Z,23.52
2018-09-03T00:16:15.649Z,23.52
2018-09-03T00:18:43.342Z,23.52
2018-09-03T00:21:11.029Z,23.51
2018-09-03T00:23:39.613Z,23.51
2018-09-03T00:26:07.397Z,23.51
2018-09-03T00:28:35.037Z,23.51
2018-09-03T00:31:08.512Z,23.49
2018-09-03T00:33:41.719Z,23.48
2018-09-03T00:36:15.327Z,23.48
2018-09-03T00:38:48.972Z,23.46
2018-09-03T00:41:22.208Z,23.45
2018-09-03T00:43:55.479Z,23.47
2018-09-03T00:46:29.172Z,23.47
2018-09-03T00:48:57.246Z,23.46
2018-09-03T00:51:24.887Z,23.46
2018-09-03T00:53:52.926Z,23.45
2018-09-03T00:56:20.672Z,23.46
2018-09-03T00:58:48.335Z,23.44
2018-09-03T01:01:16.560Z,23.44
2018-09-03T01:03:44.301Z,23.44
2018-09-03T01:06:12.391Z,23.45
2018-09-03T01:08:40.443Z,23.43
2018-09-03T01:11:08.360Z,23.45
2018-09-03T01:13:36.101Z,23.46
2018-09-03T01:16:04.337Z,23.46
2018-09-03T01:18:37.122Z,23.47
2018-09-03T01:21:05.095Z,23.45
2018-09-03T01:23:33.016Z,23.47
2018-09-03T01:26:00.741Z,23.46
2018-09-03T01:28:28.482Z,23.47
2018-09-03T01:30:56.180Z,23.46
2018-09-03T01:33:23.898Z,23.46
2018-09-03T01:35:51.634Z,23.46
2018-09-03T01:38:19.408Z,23.46
2018-09-03T01:40:47.052Z,23.46
2018-09-03T01:43:14.817Z,23.45
2018-09-03T01:45:42.678Z,23.45
2018-09-03T01:48:10.456Z,23.46
2018-09-03T01:50:38.469Z,23.43
2018-09-03T01:55:33.194Z,23.39
2018-09-03T01:58:01.241Z,23.37
2018-09-03T02:00:28.909Z,23.36
2018-09-03T02:02:56.616Z,23.35
2018-09-03T02:05:24.273Z,23.34
2018-09-03T02:07:52.522Z,23.34
2018-09-03T02:10:20.232Z,23.33
2018-09-03T02:12:47.945Z,23.31
2018-09-03T02:15:16.196Z,23.29
2018-09-03T02:17:43.924Z,23.28
2018-09-03T02:20:11.647Z,23.27
2018-09-03T02:22:39.712Z,23.27
2018-09-03T02:25:07.456Z,23.25
2018-09-03T02:27:35.476Z,23.24
2018-09-03T02:30:03.141Z,23.23
2018-09-03T02:32:31.229Z,23.22
2018-09-03T02:34:59.263Z,23.22
2018-09-03T02:37:27.289Z,23.21
2018-09-03T02:39:54.979Z,23.20
2018-09-03T02:42:22.656Z,23.19
2018-09-03T02:44:50.405Z,23.18
2018-09-03T02:47:18.104Z,23.18
2018-09-03T02:49:45.860Z,23.18
2018-09-03T02:52:13.863Z,23.17
2018-09-03T02:54:41.750Z,23.16
2018-09-03T02:57:09.451Z,23.15
2018-09-03T02:59:37.220Z,23.15
2018-09-03T03:02:05.025Z,23.15
2018-09-03T03:04:32.725Z,23.13
2018-09-03T03:07:00.363Z,23.12
2018-09-03T03:09:28.456Z,23.12
2018-09-03T03:11:56.177Z,23.12
2018-09-03T03:14:23.845Z,23.11
2018-09-03T03:16:51.640Z,23.12
2018-09-03T03:19:19.341Z,23.14
2018-09-03T03:21:47.045Z,23.12
2018-09-03T03:24:14.751Z,23.13
2018-09-03T03:26:42.465Z,23.11
2018-09-03T03:29:10.263Z,23.11
2018-09-03T03:31:38.308Z,23.11
2018-09-03T03:34:06.588Z,23.11
2018-09-03T03:36:34.275Z,23.10
2018-09-03T03:39:02.085Z,23.08
2018-09-03T03:41:29.769Z,23.10
2018-09-03T03:43:57.506Z,23.12
2018-09-03T03:46:25.459Z,23.13
2018-09-03T03:48:53.148Z,23.13
2018-09-03T03:51:20.867Z,23.14
2018-09-03T03:53:48.554Z,23.14
2018-09-03T03:56:16.275Z,23.13
2018-09-03T03:58:44.145Z,23.13
2018-09-03T04:04:20.292Z,23.10
2018-09-03T04:06:47.928Z,23.07
2018-09-03T04:09:16.132Z,23.07
2018-09-03T04:14:34.216Z,23.05
2018-09-03T04:17:02.101Z,23.05
2018-09-03T04:19:29.762Z,23.04
2018-09-03T04:21:57.674Z,23.03
2018-09-03T04:24:41.576Z,23.03
2018-09-03T04:27:09.195Z,23.03
2018-09-03T04:29:37.097Z,23.03
2018-09-03T04:32:05.151Z,23.04
2018-09-03T04:34:32.794Z,23.05
2018-09-03T04:37:00.509Z,23.03
2018-09-03T04:39:28.136Z,23.03
2018-09-03T04:42:09.089Z,23.03
2018-09-03T04:44:36.701Z,23.02
2018-09-03T04:58:27.364Z,22.97
2018-09-03T05:00:55.059Z,22.96
2018-09-03T05:03:22.733Z,22.95
2018-09-03T05:05:51.369Z,22.95
2018-09-03T05:08:19.405Z,22.94
2018-09-03T05:10:47.348Z,22.94
2018-09-03T05:16:05.937Z,22.92
2018-09-03T05:18:35.195Z,22.91
2018-09-03T05:21:03.190Z,22.91
2018-09-03T05:23:30.931Z,22.89
2018-09-03T05:25:58.716Z,22.89
2018-09-03T05:28:26.408Z,22.89
2018-09-03T05:30:54.518Z,22.90
2018-09-03T05:33:22.296Z,22.89
2018-09-03T05:35:50.072Z,22.89
2018-09-03T05:38:18.064Z,22.88
2018-09-03T05:40:45.755Z,22.90
2018-09-03T05:43:13.457Z,22.92
2018-09-03T05:45:41.177Z,22.95
2018-09-03T05:48:09.157Z,22.98
2018-09-03T05:50:36.895Z,22.99
2018-09-03T05:53:05.051Z,22.92
2018-09-03T05:55:33.124Z,23.02
2018-09-03T05:58:01.384Z,23.03
2018-09-03T06:00:29.428Z,23.02
2018-09-03T06:02:57.166Z,23.06
2018-09-03T06:05:24.988Z,23.10
2018-09-03T06:07:52.736Z,23.15
2018-09-03T06:10:20.438Z,23.16
2018-09-03T06:12:48.166Z,23.14
2018-09-03T06:15:16.015Z,23.15
2018-09-03T06:17:43.784Z,23.15
2018-09-03T06:20:23.256Z,23.18
2018-09-03T06:22:51.140Z,23.19
2018-09-03T06:25:18.862Z,23.20
2018-09-03T06:27:46.751Z,23.22
2018-09-03T06:30:15.071Z,23.27
2018-09-03T06:32:42.862Z,23.27
2018-09-03T06:35:10.871Z,23.25
2018-09-03T06:37:38.646Z,23.25
2018-09-03T06:40:06.424Z,23.22
2018-09-03T06:42:35.020Z,23.21
2018-09-03T06:45:02.821Z,23.20
2018-09-03T06:47:30.608Z,23.22
2018-09-03T06:49:58.410Z,23.21
2018-09-03T06:52:26.428Z,23.21
2018-09-03T06:54:54.149Z,23.22
2018-09-03T06:57:21.892Z,23.22
2018-09-03T06:59:49.660Z,23.19
2018-09-03T07:02:17.580Z,23.21
2018-09-03T07:04:45.325Z,23.21
2018-09-03T07:07:13.019Z,23.22
2018-09-03T07:09:40.781Z,23.23
2018-09-03T07:12:08.470Z,23.24
2018-09-03T07:14:36.136Z,23.26
2018-09-03T07:17:04.717Z,23.28
2018-09-03T07:19:32.428Z,23.30
2018-09-03T07:22:00.532Z,23.31
2018-09-03T07:24:28.248Z,23.31
2018-09-03T07:26:55.957Z,23.28
2018-09-03T07:29:24.300Z,23.27
2018-09-03T07:31:52.032Z,23.24
2018-09-03T07:34:20.629Z,23.22
2018-09-03T07:36:48.661Z,23.22
2018-09-03T07:39:16.958Z,23.24
2018-09-03T07:41:44.758Z,23.23
2018-09-03T07:44:12.612Z,23.24
2018-09-03T07:46:40.364Z,23.23
2018-09-03T07:49:08.185Z,23.25
2018-09-03T07:51:35.956Z,23.27
2018-09-03T07:54:03.628Z,23.29
2018-09-03T07:56:31.312Z,23.31
2018-09-03T07:58:59.402Z,23.35
2018-09-03T08:01:27.035Z,23.37
2018-09-03T08:03:55.084Z,23.38
2018-09-03T08:06:23.097Z,23.42
2018-09-03T08:08:50.789Z,23.45
2018-09-03T08:11:18.935Z,23.49
2018-09-03T08:13:46.668Z,23.50
2018-09-03T08:16:14.467Z,23.52
2018-09-03T08:18:42.321Z,23.54
2018-09-03T08:21:10.043Z,23.54
2018-09-03T08:23:37.822Z,23.53
2018-09-03T08:26:05.753Z,23.57
2018-09-03T08:28:33.584Z,23.58
2018-09-03T08:31:01.631Z,23.61
2018-09-03T08:33:29.318Z,23.62
2018-09-03T08:35:57.589Z,23.62
2018-09-03T08:38:25.425Z,23.61
2018-09-03T08:40:53.239Z,23.60
2018-09-03T08:43:21.257Z,23.59
2018-09-03T08:45:48.992Z,23.60
2018-09-03T08:48:16.756Z,23.59
2018-09-03T08:50:44.670Z,23.64
2018-09-03T08:53:12.365Z,23.69
2018-09-03T08:55:40.168Z,23.73
2018-09-03T08:58:07.935Z,23.72
2018-09-03T09:00:35.613Z,23.71
2018-09-03T09:03:03.289Z,23.71
2018-09-03T09:05:31.371Z,23.74
2018-09-03T09:07:59.077Z,23.78
2018-09-03T09:10:26.759Z,23.80
2018-09-03T09:15:44.833Z,23.83
2018-09-03T09:18:12.643Z,23.84
2018-09-03T09:20:40.390Z,23.87
2018-09-03T09:23:08.212Z,23.90
2018-09-03T09:25:36.040Z,23.93
2018-09-03T09:28:03.982Z,23.94
2018-09-03T09:30:31.833Z,23.96
2018-09-03T09:32:59.587Z,24.00
2018-09-03T09:35:27.654Z,24.04
2018-09-03T09:40:49.777Z,24.09
2018-09-03T09:43:17.722Z,24.12
2018-09-03T09:45:45.395Z,24.11
2018-09-03T09:48:13.089Z,24.17
2018-09-03T09:50:40.813Z,24.21
2018-09-03T09:53:08.484Z,24.24
2018-09-03T09:55:36.332Z,24.23
2018-09-03T09:58:04.041Z,24.24
2018-09-03T10:00:37.472Z,24.26
2018-09-03T10:03:05.156Z,24.26
2018-09-03T10:05:32.899Z,24.29
2018-09-03T10:08:00.869Z,24.31
2018-09-03T10:10:29.163Z,24.34
2018-09-03T10:12:56.933Z,24.35
2018-09-03T10:15:24.761Z,24.36
2018-09-03T10:17:52.490Z,24.36
2018-09-03T10:20:20.563Z,24.33
2018-09-03T10:22:48.262Z,24.37
2018-09-03T10:25:15.949Z,24.42
2018-09-03T10:27:43.733Z,24.47
2018-09-03T10:30:11.426Z,24.50
2018-09-03T10:32:40.314Z,24.51
2018-09-03T10:35:08.080Z,24.49
2018-09-03T10:37:35.912Z,24.49
2018-09-03T10:40:04.053Z,24.49
2018-09-03T10:42:32.003Z,24.51
2018-09-03T10:45:00.117Z,24.51
2018-09-03T10:47:27.829Z,24.50
2018-09-03T10:49:55.629Z,24.47
2018-09-03T10:52:23.371Z,24.47
2018-09-03T10:54:51.058Z,24.49
2018-09-03T10:57:18.846Z,24.49
2018-09-03T10:59:47.067Z,24.51
2018-09-03T11:02:14.777Z,24.53
2018-09-03T11:04:43.757Z,24.56
2018-09-03T11:07:12.450Z,24.58
2018-09-03T11:09:41.325Z,24.61
2018-09-03T11:12:09.134Z,24.62
2018-09-03T11:14:36.952Z,24.65
2018-09-03T11:17:04.662Z,24.68
2018-09-03T11:19:34.956Z,24.75
2018-09-03T11:22:02.726Z,24.78
2018-09-03T11:24:30.460Z,24.79
2018-09-03T11:26:58.179Z,24.82
2018-09-03T11:29:26.077Z,24.87
2018-09-03T11:31:53.971Z,24.93
2018-09-03T11:34:21.666Z,24.98
2018-09-03T11:36:49.590Z,25.04
2018-09-03T11:39:17.631Z,25.09
2018-09-03T11:41:45.577Z,25.16
2018-09-03T11:44:13.351Z,25.21
2018-09-03T11:46:41.413Z,25.22
2018-09-03T11:49:09.116Z,25.25
2018-09-03T11:51:36.950Z,25.29
2018-09-03T11:54:04.679Z,25.31
2018-09-03T11:56:32.366Z,25.35
2018-09-03T11:59:00.571Z,25.32
2018-09-03T12:01:28.282Z,25.33
2018-09-03T12:03:55.990Z,25.29
2018-09-03T12:06:23.709Z,25.27
2018-09-03T12:08:51.329Z,25.31
2018-09-03T12:11:19.226Z,25.37
2018-09-03T12:13:47.202Z,25.43
2018-09-03T12:16:18.739Z,25.46
2018-09-03T12:21:37.098Z,25.51
2018-09-03T12:24:05.446Z,25.53
2018-09-03T12:26:34.160Z,25.58
2018-09-03T12:29:03.035Z,25.62
2018-09-03T12:31:34.872Z,25.68
2018-09-03T12:34:03.518Z,25.71
2018-09-03T12:36:41.951Z,25.75
2018-09-03T12:39:10.623Z,25.79
2018-09-03T12:41:39.184Z,25.84
2018-09-03T12:44:13.498Z,25.92
2018-09-03T12:46:41.249Z,25.95
2018-09-03T12:49:10.007Z,26.01
2018-09-03T12:51:39.273Z,26.05
2018-09-03T12:54:07.881Z,26.08
2018-09-03T12:56:36.213Z,26.12
2018-09-03T12:59:09.806Z,26.16
2018-09-03T13:01:39.586Z,26.19
2018-09-03T13:04:08.959Z,26.22
2018-09-03T13:06:37.509Z,26.23
2018-09-03T13:11:55.283Z,26.27
2018-09-03T13:14:24.203Z,26.31
2018-09-03T13:16:52.767Z,26.34
2018-09-03T13:19:21.582Z,26.38
2018-09-03T13:21:50.300Z,26.42
2018-09-03T13:24:21.085Z,26.46
2018-09-03T13:26:50.978Z,26.49
2018-09-03T13:29:19.496Z,26.51
2018-09-03T13:31:48.569Z,26.55
2018-09-03T13:34:20.167Z,26.58
2018-09-03T13:36:48.815Z,26.64
2018-09-03T13:39:19.088Z,26.63
2018-09-03T13:41:48.262Z,26.55
2018-09-03T13:44:18.016Z,26.68
2018-09-03T13:46:47.544Z,26.70
2018-09-03T13:49:19.686Z,26.75
2018-09-03T13:51:49.395Z,26.81
2018-09-03T13:54:18.097Z,26.86
2018-09-03T13:56:46.884Z,26.89
2018-09-03T13:59:15.553Z,26.92
2018-09-03T14:01:43.936Z,26.99
2018-09-03T14:04:12.450Z,27.04
2018-09-03T14:06:41.239Z,27.09
2018-09-03T14:09:09.650Z,27.13
2018-09-03T14:11:38.731Z,27.20
2018-09-03T14:14:08.680Z,27.24
2018-09-03T14:16:37.296Z,27.31
2018-09-03T14:19:06.098Z,27.57
2018-09-03T14:21:34.986Z,27.81
2018-09-03T14:24:03.561Z,27.75
2018-09-03T14:26:37.198Z,28.00
2018-09-03T14:29:05.956Z,28.06
2018-09-03T14:31:35.533Z,28.59
2018-09-03T14:34:06.375Z,28.97
2018-09-03T14:36:36.016Z,29.16
2018-09-03T14:39:05.927Z,29.00
2018-09-03T14:41:42.065Z,28.42
2018-09-03T14:44:12.788Z,28.86
2018-09-03T14:49:08.675Z,29.11
2018-09-03T14:51:37.183Z,29.01
2018-09-03T14:54:09.618Z,29.24
2018-09-03T14:56:39.533Z,29.21
2018-09-03T14:59:14.507Z,29.31
2018-09-03T15:01:44.548Z,29.34
2018-09-03T15:04:13.046Z,29.26
2018-09-03T15:06:43.629Z,29.32
2018-09-03T15:09:14.388Z,29.46
2018-09-03T15:11:42.925Z,29.45
2018-09-03T15:14:11.407Z,29.42
2018-09-03T15:16:40.787Z,29.60
2018-09-03T15:19:09.482Z,29.70
2018-09-03T15:21:38.238Z,29.74
2018-09-03T15:24:07.228Z,29.86
2018-09-03T15:26:35.788Z,29.96
2018-09-03T15:29:07.168Z,30.02
2018-09-03T15:31:37.491Z,30.04
2018-09-03T15:34:06.333Z,29.98
2018-09-03T15:36:37.883Z,29.89
2018-09-03T15:39:10.239Z,29.75
2018-09-03T15:41:38.652Z,29.54
2018-09-03T15:44:09.562Z,29.33
2018-09-03T15:46:39.595Z,29.14
2018-09-03T15:49:08.084Z,28.99
2018-09-03T15:51:36.732Z,28.81
2018-09-03T15:54:05.271Z,28.63
2018-09-03T15:56:38.636Z,28.45
2018-09-03T15:59:07.237Z,28.27
2018-09-03T16:01:38.603Z,28.14
2018-09-03T16:04:07.124Z,28.05
2018-09-03T16:06:35.838Z,27.99
2018-09-03T16:09:08.503Z,27.94
2018-09-03T16:11:38.676Z,27.91
2018-09-03T16:14:09.185Z,27.89
2018-09-03T16:16:40.824Z,27.87
2018-09-03T16:19:10.454Z,27.83
2018-09-03T16:21:39.922Z,27.82
2018-09-03T16:24:09.251Z,27.79
2018-09-03T16:26:38.046Z,27.76
2018-09-03T16:29:07.385Z,27.69
2018-09-03T16:31:36.425Z,27.45
2018-09-03T16:34:10.141Z,27.28
2018-09-03T16:36:37.953Z,27.18
2018-09-03T16:39:09.661Z,27.20
2018-09-03T16:41:42.430Z,27.21
2018-09-03T16:44:14.466Z,27.21
2018-09-03T16:46:43.816Z,27.22
2018-09-03T16:49:11.653Z,27.20
2018-09-03T16:51:39.731Z,27.20
2018-09-03T16:54:07.472Z,27.17
2018-09-03T16:56:35.157Z,27.14
2018-09-03T16:59:02.884Z,27.12
2018-09-03T17:01:30.802Z,27.11
2018-09-03T17:04:01.026Z,27.11
2018-09-03T17:06:28.739Z,27.13
2018-09-03T17:08:56.419Z,27.16
2018-09-03T17:11:24.154Z,27.18
2018-09-03T17:13:51.860Z,27.23
2018-09-03T17:16:19.546Z,27.22
2018-09-03T17:18:47.401Z,27.24
2018-09-03T17:21:15.193Z,27.21
2018-09-03T17:23:42.893Z,27.15
2018-09-03T17:26:10.692Z,27.07
2018-09-03T17:28:39.320Z,26.99
2018-09-03T17:31:07.036Z,26.91
2018-09-03T17:33:34.801Z,26.87
2018-09-03T17:36:02.856Z,26.82
2018-09-03T17:38:30.623Z,26.78
2018-09-03T17:40:58.286Z,26.74
2018-09-03T17:43:26.363Z,26.71
2018-09-03T17:45:54.157Z,26.69
2018-09-03T17:48:22.008Z,26.67
2018-09-03T17:50:49.755Z,26.64
2018-09-03T17:53:17.470Z,26.61
2018-09-03T17:55:45.726Z,26.58
2018-09-03T17:58:13.413Z,26.53
2018-09-03T18:00:41.182Z,26.50
2018-09-03T18:03:09.252Z,26.46
2018-09-03T18:05:37.864Z,26.43
2018-09-03T18:08:05.658Z,26.41
2018-09-03T18:10:33.726Z,26.39
2018-09-03T18:13:01.969Z,26.35
2018-09-03T18:15:29.933Z,26.34
2018-09-03T18:17:57.629Z,26.34
2018-09-03T18:20:25.672Z,26.34
2018-09-03T18:22:53.606Z,26.31
2018-09-03T18:25:21.869Z,26.29
2018-09-03T18:27:49.539Z,26.28
2018-09-03T18:30:17.650Z,26.24
2018-09-03T18:32:45.825Z,26.22
2018-09-03T18:35:13.537Z,26.20
2018-09-03T18:37:41.538Z,26.18
2018-09-03T18:40:09.278Z,26.16
2018-09-03T18:42:37.074Z,26.15
2018-09-03T18:45:05.427Z,26.13
2018-09-03T18:47:33.206Z,26.12
2018-09-03T18:50:01.559Z,26.11
2018-09-03T18:52:29.367Z,26.10
2018-09-03T18:54:57.051Z,26.07
2018-09-03T18:57:24.756Z,26.03
2018-09-03T18:59:54.183Z,26.01
2018-09-03T19:02:22.185Z,26.01
2018-09-03T19:04:49.916Z,25.99
2018-09-03T19:07:17.690Z,25.97
2018-09-03T19:09:45.447Z,25.95
2018-09-03T19:12:13.155Z,25.94
2018-09-03T19:14:41.344Z,25.91
2018-09-03T19:17:09.026Z,25.89
2018-09-03T19:19:36.785Z,25.88
2018-09-03T19:22:04.515Z,25.86
2018-09-03T19:24:32.217Z,25.85
2018-09-03T19:26:59.990Z,25.83
2018-09-03T19:29:27.690Z,25.83
2018-09-03T19:31:55.471Z,25.83
2018-09-03T19:34:23.629Z,25.80
2018-09-03T19:36:51.305Z,25.79
2018-09-03T19:39:19.033Z,25.78
2018-09-03T19:41:46.812Z,25.76
2018-09-03T19:44:14.542Z,25.73
2018-09-03T19:46:42.201Z,25.71
2018-09-03T19:49:10.007Z,25.71
2018-09-03T19:51:37.667Z,25.69
2018-09-03T19:54:05.924Z,25.68
2018-09-03T19:56:33.874Z,25.66
2018-09-03T19:59:01.829Z,25.65
2018-09-03T20:01:29.907Z,25.63
2018-09-03T20:03:57.591Z,25.63
2018-09-03T20:06:25.362Z,25.62
2018-09-03T20:08:53.158Z,25.61
2018-09-03T20:11:20.855Z,25.59
2018-09-03T20:13:48.640Z,25.58
2018-09-03T20:16:16.583Z,25.57
2018-09-03T20:18:44.312Z,25.56
2018-09-03T20:21:12.082Z,25.55
2018-09-03T20:23:40.461Z,25.53
2018-09-03T20:26:08.173Z,25.51
2018-09-03T20:28:35.936Z,25.50
2018-09-03T20:31:04.005Z,25.48
2018-09-03T20:33:31.677Z,25.47
2018-09-03T20:35:59.427Z,25.47
2018-09-03T20:38:27.103Z,25.46
2018-09-03T20:40:54.792Z,25.45
2018-09-03T20:43:22.864Z,25.42
2018-09-03T20:45:50.595Z,25.42
2018-09-03T20:48:18.333Z,25.41
2018-09-03T20:50:46.010Z,25.39
2018-09-03T20:53:13.721Z,25.38
2018-09-03T20:55:41.767Z,25.37
2018-09-03T20:58:09.470Z,25.36
2018-09-03T21:00:37.148Z,25.36
2018-09-03T21:03:05.265Z,25.34
2018-09-03T21:05:33.006Z,25.34
2018-09-03T21:08:00.785Z,25.32
2018-09-03T21:10:28.420Z,25.31
2018-09-03T21:12:56.091Z,25.31
2018-09-03T21:15:23.877Z,25.29
2018-09-03T21:17:51.540Z,25.27
2018-09-03T21:20:19.249Z,25.27
2018-09-03T21:22:46.972Z,25.26
2018-09-03T21:25:14.658Z,25.26
2018-09-03T21:27:42.490Z,25.25
2018-09-03T21:30:10.189Z,25.25
2018-09-03T21:32:37.928Z,25.22
2018-09-03T21:35:06.444Z,25.22
2018-09-03T21:37:34.551Z,25.20
2018-09-03T21:40:02.243Z,25.19
2018-09-03T21:42:29.916Z,25.18
2018-09-03T21:44:57.701Z,25.18
2018-09-03T21:47:25.358Z,25.17
2018-09-03T21:49:53.067Z,25.16
2018-09-03T21:52:21.131Z,25.15
2018-09-03T21:54:48.811Z,25.14
2018-09-03T21:57:16.469Z,25.13
2018-09-03T21:59:44.149Z,25.13
2018-09-03T22:02:11.897Z,25.11
2018-09-03T22:04:41.536Z,25.11
2018-09-03T22:07:09.262Z,25.09
2018-09-03T22:09:37.233Z,25.08
2018-09-03T22:12:04.945Z,25.01
2018-09-03T22:14:32.600Z,25.05
2018-09-03T22:17:00.362Z,25.05
2018-09-03T22:19:28.051Z,25.04
2018-09-03T22:21:56.112Z,25.03
2018-09-03T22:24:23.792Z,25.02
2018-09-03T22:26:51.634Z,25.00
2018-09-03T22:29:19.325Z,24.97
2018-09-03T22:31:47.068Z,24.98
2018-09-03T22:34:14.748Z,24.97
2018-09-03T22:36:43.318Z,24.96
2018-09-03T22:39:11.125Z,24.94
2018-09-03T22:41:38.912Z,24.93
2018-09-03T22:44:06.887Z,24.91
2018-09-03T22:46:34.582Z,24.91
2018-09-03T22:49:02.318Z,24.89
2018-09-03T22:51:30.241Z,24.90
2018-09-03T22:53:58.340Z,24.88
2018-09-03T22:56:26.046Z,24.87
2018-09-03T22:58:53.728Z,24.87
2018-09-03T23:01:21.534Z,24.86
2018-09-03T23:03:49.190Z,24.83
2018-09-03T23:06:17.005Z,24.84
2018-09-03T23:08:44.697Z,24.83
2018-09-03T23:11:12.404Z,24.82
2018-09-03T23:13:40.189Z,24.81
2018-09-03T23:16:07.898Z,24.80
2018-09-03T23:18:35.622Z,24.79
2018-09-03T23:21:03.277Z,24.79
2018-09-03T23:23:32.273Z,24.78
2018-09-03T23:25:59.932Z,24.78
2018-09-03T23:28:27.598Z,24.76
2018-09-03T23:30:55.601Z,24.76
2018-09-03T23:33:23.313Z,24.65
2018-09-03T23:35:51.100Z,24.73
2018-09-03T23:38:24.031Z,24.72
2018-09-03T23:40:51.715Z,24.72
2018-09-03T23:43:19.845Z,24.71
2018-09-03T23:45:47.420Z,24.70
2018-09-03T23:48:15.773Z,24.70
2018-09-03T23:50:43.468Z,24.68
2018-09-03T23:53:11.131Z,24.68
2018-09-03T23:55:39.100Z,24.66
